sensor_id;sensor_type;location;lat;lon;timestamp;pressure;altitude;pressure_sealevel;temperature;humidity
67697;BME280;54486;51.442;6.778;2023-03-30T00:01:12;100523.91;;;12.80;82.88
67697;BME280;54486;51.442;6.778;2023-03-30T00:03:42;100510.81;;;12.82;82.46
67697;BME280;54486;51.442;6.778;2023-03-30T00:06:13;100503.03;;;12.77;82.72
67697;BME280;54486;51.442;6.778;2023-03-30T00:08:48;100497.78;;;12.77;82.68
67697;BME280;54486;51.442;6.778;2023-03-30T00:11:16;100479.47;;;12.77;82.81
67697;BME280;54486;51.442;6.778;2023-03-30T00:13:43;100506.50;;;12.79;82.13
67697;BME280;54486;51.442;6.778;2023-03-30T00:16:13;100488.13;;;12.81;82.01
67697;BME280;54486;51.442;6.778;2023-03-30T00:18:41;100478.59;;;12.78;81.95
67697;BME280;54486;51.442;6.778;2023-03-30T00:21:10;100471.63;;;12.77;82.06
67697;BME280;54486;51.442;6.778;2023-03-30T00:23:38;100470.69;;;12.80;81.50
67697;BME280;54486;51.442;6.778;2023-03-30T00:26:06;100468.03;;;12.81;81.09
67697;BME280;54486;51.442;6.778;2023-03-30T00:28:33;100481.94;;;12.83;80.87
67697;BME280;54486;51.442;6.778;2023-03-30T00:31:01;100487.91;;;12.90;79.95
67697;BME280;54486;51.442;6.778;2023-03-30T00:33:29;100488.78;;;12.90;79.77
67697;BME280;54486;51.442;6.778;2023-03-30T00:36:13;100473.16;;;12.87;80.07
67697;BME280;54486;51.442;6.778;2023-03-30T00:38:40;100471.53;;;12.80;80.13
67697;BME280;54486;51.442;6.778;2023-03-30T00:41:08;100471.69;;;12.74;80.64
67697;BME280;54486;51.442;6.778;2023-03-30T00:46:22;100477.19;;;12.62;80.90
67697;BME280;54486;51.442;6.778;2023-03-30T00:48:50;100473.69;;;12.63;80.93
67697;BME280;54486;51.442;6.778;2023-03-30T00:51:17;100482.34;;;12.65;79.88
67697;BME280;54486;51.442;6.778;2023-03-30T00:53:47;100461.22;;;12.74;79.62
67697;BME280;54486;51.442;6.778;2023-03-30T00:56:18;100463.03;;;12.70;79.69
67697;BME280;54486;51.442;6.778;2023-03-30T00:58:51;100456.16;;;12.65;80.21
67697;BME280;54486;51.442;6.778;2023-03-30T01:01:21;100440.59;;;12.59;80.02
67697;BME280;54486;51.442;6.778;2023-03-30T01:03:56;100436.22;;;12.59;79.82
67697;BME280;54486;51.442;6.778;2023-03-30T01:06:26;100432.00;;;12.54;80.35
67697;BME280;54486;51.442;6.778;2023-03-30T01:08:56;100439.88;;;12.51;80.15
67697;BME280;54486;51.442;6.778;2023-03-30T01:11:27;100445.84;;;12.59;79.51
67697;BME280;54486;51.442;6.778;2023-03-30T01:13:57;100435.28;;;12.62;79.61
67697;BME280;54486;51.442;6.778;2023-03-30T01:35:28;100428.03;;;12.74;77.88
67697;BME280;54486;51.442;6.778;2023-03-30T01:43:46;100432.53;;;12.68;78.07
67697;BME280;54486;51.442;6.778;2023-03-30T01:46:36;100426.50;;;12.66;78.69
67697;BME280;54486;51.442;6.778;2023-03-30T01:49:28;100428.19;;;12.67;78.27
67697;BME280;54486;51.442;6.778;2023-03-30T01:52:14;100424.75;;;12.65;78.54
67697;BME280;54486;51.442;6.778;2023-03-30T01:54:49;100422.13;;;12.66;78.25
67697;BME280;54486;51.442;6.778;2023-03-30T01:57:22;100434.16;;;12.73;77.27
67697;BME280;54486;51.442;6.778;2023-03-30T01:59:58;100427.97;;;12.79;77.19
67697;BME280;54486;51.442;6.778;2023-03-30T02:02:29;100423.56;;;12.80;77.79
67697;BME280;54486;51.442;6.778;2023-03-30T02:04:58;100423.56;;;12.80;77.65
67697;BME280;54486;51.442;6.778;2023-03-30T02:07:29;100413.00;;;12.84;77.19
67697;BME280;54486;51.442;6.778;2023-03-30T02:10:02;100415.53;;;12.87;76.74
67697;BME280;54486;51.442;6.778;2023-03-30T02:12:31;100414.59;;;12.91;77.01
67697;BME280;54486;51.442;6.778;2023-03-30T02:15:04;100409.34;;;12.91;76.85
67697;BME280;54486;51.442;6.778;2023-03-30T02:17:33;100402.38;;;12.90;76.96
67697;BME280;54486;51.442;6.778;2023-03-30T02:20:03;100404.84;;;12.96;76.55
67697;BME280;54486;51.442;6.778;2023-03-30T02:22:32;100408.31;;;12.98;76.64
67697;BME280;54486;51.442;6.778;2023-03-30T02:25:00;100397.84;;;12.98;76.50
67697;BME280;54486;51.442;6.778;2023-03-30T02:27:28;100406.31;;;13.09;75.37
67697;BME280;54486;51.442;6.778;2023-03-30T02:29:55;100413.22;;;13.13;75.54
67697;BME280;54486;51.442;6.778;2023-03-30T02:32:43;100407.69;;;13.25;74.57
67697;BME280;54486;51.442;6.778;2023-03-30T02:48:41;100382.75;;;13.45;73.42
67697;BME280;54486;51.442;6.778;2023-03-30T02:56:42;100373.63;;;13.25;73.83
67697;BME280;54486;51.442;6.778;2023-03-30T02:59:35;100366.06;;;13.13;74.52
67697;BME280;54486;51.442;6.778;2023-03-30T03:02:29;100371.56;;;13.01;75.20
67697;BME280;54486;51.442;6.778;2023-03-30T03:05:00;100374.44;;;12.91;75.75
67697;BME280;54486;51.442;6.778;2023-03-30T03:07:33;100365.06;;;12.82;75.62
67697;BME280;54486;51.442;6.778;2023-03-30T03:10:00;100368.56;;;12.81;75.99
67697;BME280;54486;51.442;6.778;2023-03-30T03:12:28;100369.28;;;12.86;75.46
67697;BME280;54486;51.442;6.778;2023-03-30T03:14:56;100375.16;;;12.97;75.09
67697;BME280;54486;51.442;6.778;2023-03-30T03:17:23;100382.88;;;13.02;75.18
67697;BME280;54486;51.442;6.778;2023-03-30T03:19:50;100373.16;;;13.08;74.62
67697;BME280;54486;51.442;6.778;2023-03-30T03:22:17;100368.81;;;13.07;75.37
67697;BME280;54486;51.442;6.778;2023-03-30T03:24:44;100376.75;;;13.04;75.52
67697;BME280;54486;51.442;6.778;2023-03-30T03:27:12;100374.91;;;13.09;75.02
67697;BME280;54486;51.442;6.778;2023-03-30T03:29:39;100376.56;;;13.13;74.98
67697;BME280;54486;51.442;6.778;2023-03-30T03:32:06;100381.56;;;13.22;74.25
67697;BME280;54486;51.442;6.778;2023-03-30T03:34:33;100379.56;;;13.34;73.91
67697;BME280;54486;51.442;6.778;2023-03-30T03:37:00;100374.06;;;13.43;73.86
67697;BME280;54486;51.442;6.778;2023-03-30T03:39:28;100373.84;;;13.52;73.50
67697;BME280;54486;51.442;6.778;2023-03-30T03:41:55;100375.94;;;13.71;72.29
67697;BME280;54486;51.442;6.778;2023-03-30T03:44:22;100380.06;;;13.80;71.70
67697;BME280;54486;51.442;6.778;2023-03-30T03:46:49;100372.66;;;13.96;70.82
67697;BME280;54486;51.442;6.778;2023-03-30T03:49:17;100377.53;;;14.08;70.73
67697;BME280;54486;51.442;6.778;2023-03-30T03:51:45;100365.28;;;14.08;70.70
67697;BME280;54486;51.442;6.778;2023-03-30T03:54:14;100361.88;;;14.06;70.58
67697;BME280;54486;51.442;6.778;2023-03-30T03:56:41;100360.03;;;14.08;70.21
67697;BME280;54486;51.442;6.778;2023-03-30T03:59:08;100356.63;;;14.06;70.97
67697;BME280;54486;51.442;6.778;2023-03-30T04:01:36;100347.91;;;14.04;70.87
67697;BME280;54486;51.442;6.778;2023-03-30T04:04:04;100349.63;;;14.05;70.45
67697;BME280;54486;51.442;6.778;2023-03-30T04:06:36;100344.38;;;14.07;70.38
67697;BME280;54486;51.442;6.778;2023-03-30T04:09:03;100346.13;;;14.06;70.52
67697;BME280;54486;51.442;6.778;2023-03-30T04:11:30;100340.09;;;14.03;70.96
67697;BME280;54486;51.442;6.778;2023-03-30T04:13:57;100335.97;;;13.94;71.71
67697;BME280;54486;51.442;6.778;2023-03-30T04:16:24;100344.69;;;13.95;71.56
67697;BME280;54486;51.442;6.778;2023-03-30T04:18:51;100340.28;;;13.97;71.29
67697;BME280;54486;51.442;6.778;2023-03-30T04:21:18;100341.06;;;14.00;71.63
67697;BME280;54486;51.442;6.778;2023-03-30T04:23:47;100329.22;;;14.16;69.98
67697;BME280;54486;51.442;6.778;2023-03-30T04:26:15;100315.91;;;14.22;69.80
67697;BME280;54486;51.442;6.778;2023-03-30T04:28:43;100335.00;;;14.27;69.54
67697;BME280;54486;51.442;6.778;2023-03-30T04:31:10;100327.63;;;14.42;68.90
67697;BME280;54486;51.442;6.778;2023-03-30T04:33:39;100328.69;;;14.64;67.60
67697;BME280;54486;51.442;6.778;2023-03-30T04:36:19;100320.50;;;14.73;67.66
67697;BME280;54486;51.442;6.778;2023-03-30T04:38:46;100318.94;;;14.67;68.33
67697;BME280;54486;51.442;6.778;2023-03-30T04:41:33;100325.13;;;14.65;68.27
67697;BME280;54486;51.442;6.778;2023-03-30T04:44:03;100318.28;;;14.61;68.58
67697;BME280;54486;51.442;6.778;2023-03-30T04:46:32;100314.91;;;14.56;68.56
67697;BME280;54486;51.442;6.778;2023-03-30T04:48:59;100311.47;;;14.54;69.00
67697;BME280;54486;51.442;6.778;2023-03-30T04:51:27;100317.03;;;14.45;69.69
67697;BME280;54486;51.442;6.778;2023-03-30T04:53:54;100324.34;;;14.34;70.13
67697;BME280;54486;51.442;6.778;2023-03-30T04:56:22;100319.16;;;14.30;70.32
67697;BME280;54486;51.442;6.778;2023-03-30T04:58:49;100314.91;;;14.26;70.81
67697;BME280;54486;51.442;6.778;2023-03-30T05:01:16;100319.53;;;14.18;71.40
67697;BME280;54486;51.442;6.778;2023-03-30T05:03:42;100325.91;;;14.10;71.79
67697;BME280;54486;51.442;6.778;2023-03-30T05:06:09;100318.97;;;14.07;71.80
67697;BME280;54486;51.442;6.778;2023-03-30T05:08:37;100319.97;;;14.03;72.28
67697;BME280;54486;51.442;6.778;2023-03-30T05:11:07;100320.06;;;14.00;72.22
67697;BME280;54486;51.442;6.778;2023-03-30T05:13:34;100319.88;;;14.06;72.25
67697;BME280;54486;51.442;6.778;2023-03-30T05:16:01;100315.22;;;14.16;71.98
67697;BME280;54486;51.442;6.778;2023-03-30T05:18:28;100315.47;;;14.38;70.72
67697;BME280;54486;51.442;6.778;2023-03-30T05:20:56;100310.22;;;14.38;70.98
67697;BME280;54486;51.442;6.778;2023-03-30T05:23:25;100304.88;;;14.41;70.66
67697;BME280;54486;51.442;6.778;2023-03-30T05:25:52;100315.38;;;14.41;70.52
67697;BME280;54486;51.442;6.778;2023-03-30T05:28:24;100319.56;;;14.48;70.47
67697;BME280;54486;51.442;6.778;2023-03-30T05:30:52;100322.28;;;14.45;70.60
67697;BME280;54486;51.442;6.778;2023-03-30T05:33:20;100317.06;;;14.43;70.47
67697;BME280;54486;51.442;6.778;2023-03-30T05:35:48;100322.38;;;14.42;70.69
67697;BME280;54486;51.442;6.778;2023-03-30T05:38:16;100324.84;;;14.46;70.67
67697;BME280;54486;51.442;6.778;2023-03-30T05:40:43;100320.53;;;14.44;70.34
67697;BME280;54486;51.442;6.778;2023-03-30T05:43:10;100327.44;;;14.48;70.70
67697;BME280;54486;51.442;6.778;2023-03-30T05:45:38;100325.69;;;14.47;70.74
67697;BME280;54486;51.442;6.778;2023-03-30T05:48:05;100325.59;;;14.50;70.68
67697;BME280;54486;51.442;6.778;2023-03-30T05:50:33;100328.13;;;14.53;70.70
67697;BME280;54486;51.442;6.778;2023-03-30T05:53:00;100314.22;;;14.51;70.92
67697;BME280;54486;51.442;6.778;2023-03-30T05:55:29;100319.69;;;14.43;71.08
67697;BME280;54486;51.442;6.778;2023-03-30T05:57:58;100320.63;;;14.41;71.14
67697;BME280;54486;51.442;6.778;2023-03-30T06:00:26;100322.63;;;14.32;71.73
67697;BME280;54486;51.442;6.778;2023-03-30T06:02:54;100323.47;;;14.33;71.61
67697;BME280;54486;51.442;6.778;2023-03-30T06:05:21;100332.13;;;14.37;71.70
67697;BME280;54486;51.442;6.778;2023-03-30T06:07:49;100336.38;;;14.41;71.35
67697;BME280;54486;51.442;6.778;2023-03-30T06:10:18;100326.66;;;14.44;71.39
67697;BME280;54486;51.442;6.778;2023-03-30T06:12:47;100329.31;;;14.43;71.22
67697;BME280;54486;51.442;6.778;2023-03-30T06:15:14;100336.69;;;14.59;70.41
67697;BME280;54486;51.442;6.778;2023-03-30T06:17:41;100335.81;;;14.59;70.54
67697;BME280;54486;51.442;6.778;2023-03-30T06:20:08;100343.88;;;14.53;70.65
67697;BME280;54486;51.442;6.778;2023-03-30T06:22:39;100341.16;;;14.56;70.59
67697;BME280;54486;51.442;6.778;2023-03-30T06:25:09;100342.03;;;14.56;70.37
67697;BME280;54486;51.442;6.778;2023-03-30T06:27:36;100344.63;;;14.58;70.30
67697;BME280;54486;51.442;6.778;2023-03-30T06:30:04;100337.56;;;14.60;69.81
67697;BME280;54486;51.442;6.778;2023-03-30T06:32:33;100332.28;;;14.60;70.09
67697;BME280;54486;51.442;6.778;2023-03-30T06:35:00;100332.19;;;14.63;69.60
67697;BME280;54486;51.442;6.778;2023-03-30T06:37:33;100334.13;;;14.58;69.89
67697;BME280;54486;51.442;6.778;2023-03-30T06:40:03;100349.78;;;14.61;69.62
67697;BME280;54486;51.442;6.778;2023-03-30T06:42:40;100342.81;;;14.60;69.85
67697;BME280;54486;51.442;6.778;2023-03-30T06:45:08;100353.81;;;14.71;69.52
67697;BME280;54486;51.442;6.778;2023-03-30T06:47:36;100355.44;;;14.75;69.21
67697;BME280;54486;51.442;6.778;2023-03-30T06:50:04;100353.56;;;14.80;68.97
67697;BME280;54486;51.442;6.778;2023-03-30T06:52:35;100358.72;;;14.83;69.14
67697;BME280;54486;51.442;6.778;2023-03-30T06:55:03;100356.09;;;14.83;69.91
67697;BME280;54486;51.442;6.778;2023-03-30T06:57:30;100361.25;;;14.86;69.63
67697;BME280;54486;51.442;6.778;2023-03-30T06:59:58;100361.84;;;14.94;69.14
67697;BME280;54486;51.442;6.778;2023-03-30T07:02:29;100359.13;;;14.97;69.17
67697;BME280;54486;51.442;6.778;2023-03-30T07:04:56;100359.97;;;14.98;69.27
67697;BME280;54486;51.442;6.778;2023-03-30T07:07:24;100361.53;;;15.03;68.96
67697;BME280;54486;51.442;6.778;2023-03-30T07:09:51;100361.53;;;15.03;69.01
67697;BME280;54486;51.442;6.778;2023-03-30T07:12:18;100367.63;;;15.05;69.11
67697;BME280;54486;51.442;6.778;2023-03-30T07:14:46;100368.59;;;15.03;69.14
67697;BME280;54486;51.442;6.778;2023-03-30T07:17:13;100370.84;;;15.13;68.71
67697;BME280;54486;51.442;6.778;2023-03-30T07:19:41;100372.88;;;15.05;68.96
67697;BME280;54486;51.442;6.778;2023-03-30T07:22:08;100372.22;;;14.99;69.44
67697;BME280;54486;51.442;6.778;2023-03-30T07:24:35;100376.41;;;15.04;69.18
67697;BME280;54486;51.442;6.778;2023-03-30T07:27:03;100385.19;;;15.03;69.71
67697;BME280;54486;51.442;6.778;2023-03-30T07:29:29;100387.22;;;14.95;70.33
67697;BME280;54486;51.442;6.778;2023-03-30T07:31:56;100385.38;;;14.97;70.31
67697;BME280;54486;51.442;6.778;2023-03-30T07:34:26;100398.53;;;14.97;70.63
67697;BME280;54486;51.442;6.778;2023-03-30T07:36:54;100423.25;;;14.90;71.06
67697;BME280;54486;51.442;6.778;2023-03-30T07:39:21;100412.34;;;14.76;74.45
67697;BME280;54486;51.442;6.778;2023-03-30T07:41:50;100407.53;;;14.61;75.74
67697;BME280;54486;51.442;6.778;2023-03-30T07:44:17;100417.56;;;14.48;76.89
67697;BME280;54486;51.442;6.778;2023-03-30T07:46:44;100413.31;;;14.43;77.64
67697;BME280;54486;51.442;6.778;2023-03-30T07:49:11;100408.03;;;14.44;77.78
67697;BME280;54486;51.442;6.778;2023-03-30T07:51:38;100413.31;;;14.43;77.54
67697;BME280;54486;51.442;6.778;2023-03-30T07:54:06;100409.88;;;14.41;78.07
67697;BME280;54486;51.442;6.778;2023-03-30T07:56:36;100418.47;;;14.46;77.53
67697;BME280;54486;51.442;6.778;2023-03-30T07:59:05;100413.41;;;14.40;77.10
67697;BME280;54486;51.442;6.778;2023-03-30T08:01:36;100414.88;;;14.50;77.32
67697;BME280;54486;51.442;6.778;2023-03-30T08:04:04;100426.13;;;14.55;76.49
67697;BME280;54486;51.442;6.778;2023-03-30T08:06:32;100434.97;;;14.51;77.05
67697;BME280;54486;51.442;6.778;2023-03-30T08:08:59;100442.84;;;14.51;76.67
67697;BME280;54486;51.442;6.778;2023-03-30T08:11:26;100441.97;;;14.50;76.10
67697;BME280;54486;51.442;6.778;2023-03-30T08:13:53;100426.94;;;14.55;76.62
67697;BME280;54486;51.442;6.778;2023-03-30T08:16:19;100451.34;;;14.59;76.11
67697;BME280;54486;51.442;6.778;2023-03-30T08:18:47;100431.13;;;14.62;75.91
67697;BME280;54486;51.442;6.778;2023-03-30T08:21:15;100443.19;;;14.68;75.17
67697;BME280;54486;51.442;6.778;2023-03-30T08:23:43;100441.44;;;14.68;75.42
67697;BME280;54486;51.442;6.778;2023-03-30T08:26:09;100436.06;;;14.73;75.03
67697;BME280;54486;51.442;6.778;2023-03-30T08:28:36;100447.66;;;14.66;75.77
67697;BME280;54486;51.442;6.778;2023-03-30T08:31:05;100452.03;;;14.65;74.56
67697;BME280;54486;51.442;6.778;2023-03-30T08:33:33;100447.84;;;14.60;75.30
67697;BME280;54486;51.442;6.778;2023-03-30T08:36:00;100449.47;;;14.64;74.31
67697;BME280;54486;51.442;6.778;2023-03-30T08:38:27;100451.53;;;14.53;75.02
67697;BME280;54486;51.442;6.778;2023-03-30T08:40:55;100472.44;;;14.56;74.75
67697;BME280;54486;51.442;6.778;2023-03-30T08:43:43;100451.00;;;14.71;74.05
67697;BME280;54486;51.442;6.778;2023-03-30T08:46:15;100441.13;;;14.79;73.20
67697;BME280;54486;51.442;6.778;2023-03-30T08:48:44;100450.28;;;14.95;72.21
67697;BME280;54486;51.442;6.778;2023-03-30T08:51:21;100450.53;;;15.15;70.85
67697;BME280;54486;51.442;6.778;2023-03-30T08:54:03;100444.63;;;15.07;70.17
67697;BME280;54486;51.442;6.778;2023-03-30T09:00:37;100446.06;;;15.17;70.03
67697;BME280;54486;51.442;6.778;2023-03-30T09:02:45;100450.44;;;15.18;69.91
67697;BME280;54486;51.442;6.778;2023-03-30T09:08:18;100451.13;;;15.23;70.04
67697;BME280;54486;51.442;6.778;2023-03-30T09:11:10;100473.19;;;15.46;69.47
67697;BME280;54486;51.442;6.778;2023-03-30T09:13:41;100460.16;;;15.43;69.38
67697;BME280;54486;51.442;6.778;2023-03-30T09:18:39;100466.41;;;15.38;67.96
67697;BME280;54486;51.442;6.778;2023-03-30T09:21:09;100466.50;;;15.35;68.88
67697;BME280;54486;51.442;6.778;2023-03-30T09:23:38;100478.66;;;15.40;69.09
67697;BME280;54486;51.442;6.778;2023-03-30T09:28:48;100485.38;;;15.50;65.90
67697;BME280;54486;51.442;6.778;2023-03-30T09:39:23;100492.97;;;15.31;63.62
67697;BME280;54486;51.442;6.778;2023-03-30T09:42:01;100493.09;;;15.26;63.16
67697;BME280;54486;51.442;6.778;2023-03-30T09:45:19;100504.00;;;15.14;64.44
67697;BME280;54486;51.442;6.778;2023-03-30T09:47:42;100489.38;;;15.06;64.86
67697;BME280;54486;51.442;6.778;2023-03-30T09:50:14;100515.78;;;15.01;65.71
67697;BME280;54486;51.442;6.778;2023-03-30T09:53:06;100502.00;;;14.93;67.36
67697;BME280;54486;51.442;6.778;2023-03-30T09:55:38;100507.47;;;14.86;70.58
67697;BME280;54486;51.442;6.778;2023-03-30T09:58:19;100506.22;;;14.68;72.98
67697;BME280;54486;51.442;6.778;2023-03-30T10:01:13;100528.91;;;14.40;73.13
67697;BME280;54486;51.442;6.778;2023-03-30T10:03:43;100524.72;;;14.32;74.57
67697;BME280;54486;51.442;6.778;2023-03-30T10:06:20;100514.19;;;14.34;74.72
67697;BME280;54486;51.442;6.778;2023-03-30T10:08:51;100523.66;;;14.40;73.78
67697;BME280;54486;51.442;6.778;2023-03-30T10:11:28;100523.41;;;14.49;74.47
67697;BME280;54486;51.442;6.778;2023-03-30T10:13:57;100517.22;;;14.51;73.42
67697;BME280;54486;51.442;6.778;2023-03-30T10:16:30;100525.72;;;14.61;73.06
67697;BME280;54486;51.442;6.778;2023-03-30T10:19:12;100522.91;;;14.67;71.91
67697;BME280;54486;51.442;6.778;2023-03-30T10:21:44;100524.47;;;14.74;71.39
67697;BME280;54486;51.442;6.778;2023-03-30T10:26:44;100537.97;;;14.91;68.89
67697;BME280;54486;51.442;6.778;2023-03-30T10:29:18;100535.22;;;14.96;68.45
67697;BME280;54486;51.442;6.778;2023-03-30T10:31:56;100557.81;;;15.01;68.35
67697;BME280;54486;51.442;6.778;2023-03-30T10:34:39;100536.00;;;14.99;68.10
67697;BME280;54486;51.442;6.778;2023-03-30T10:39:54;100541.78;;;15.10;66.70
67697;BME280;54486;51.442;6.778;2023-03-30T10:42:24;100551.19;;;15.17;66.98
67697;BME280;54486;51.442;6.778;2023-03-30T10:44:54;100530.09;;;15.20;67.06
67697;BME280;54486;51.442;6.778;2023-03-30T10:47:59;100534.16;;;15.30;67.74
67697;BME280;54486;51.442;6.778;2023-03-30T11:04:49;100531.81;;;15.51;69.58
67697;BME280;54486;51.442;6.778;2023-03-30T11:08:17;100539.72;;;15.51;68.57
67697;BME280;54486;51.442;6.778;2023-03-30T11:10:23;100537.69;;;15.59;68.34
67697;BME280;54486;51.442;6.778;2023-03-30T11:13:02;100544.28;;;15.72;68.07
67697;BME280;54486;51.442;6.778;2023-03-30T11:15:41;100524.75;;;15.79;67.06
67697;BME280;54486;51.442;6.778;2023-03-30T11:18:33;100529.81;;;15.57;67.82
67697;BME280;54486;51.442;6.778;2023-03-30T11:21:12;100532.72;;;15.50;68.56
67697;BME280;54486;51.442;6.778;2023-03-30T11:24:05;100538.03;;;15.47;68.67
67697;BME280;54486;51.442;6.778;2023-03-30T11:26:42;100544.19;;;15.46;71.50
67697;BME280;54486;51.442;6.778;2023-03-30T11:37:57;100528.88;;;15.86;68.53
67697;BME280;54486;51.442;6.778;2023-03-30T11:40:45;100534.91;;;16.16;66.71
67697;BME280;54486;51.442;6.778;2023-03-30T11:43:14;100539.44;;;16.37;65.22
67697;BME280;54486;51.442;6.778;2023-03-30T11:46:20;100532.69;;;16.30;63.83
67697;BME280;54486;51.442;6.778;2023-03-30T11:52:26;100534.88;;;15.91;64.96
67697;BME280;54486;51.442;6.778;2023-03-30T11:57:48;100528.00;;;15.87;65.84
67697;BME280;54486;51.442;6.778;2023-03-30T12:03:14;100524.97;;;15.73;66.03
67697;BME280;54486;51.442;6.778;2023-03-30T12:05:45;100523.44;;;15.66;66.84
67697;BME280;54486;51.442;6.778;2023-03-30T12:08:27;100526.66;;;15.74;68.13
67697;BME280;54486;51.442;6.778;2023-03-30T12:11:17;100521.19;;;15.80;68.21
67697;BME280;54486;51.442;6.778;2023-03-30T12:13:46;100509.91;;;15.76;66.08
67697;BME280;54486;51.442;6.778;2023-03-30T12:16:32;100515.47;;;15.67;65.95
67697;BME280;54486;51.442;6.778;2023-03-30T12:19:17;100514.72;;;15.64;65.12
67697;BME280;54486;51.442;6.778;2023-03-30T12:21:56;100525.53;;;15.55;65.62
67697;BME280;54486;51.442;6.778;2023-03-30T12:24:37;100547.31;;;15.30;68.08
67697;BME280;54486;51.442;6.778;2023-03-30T12:27:08;100544.91;;;15.23;69.52
67697;BME280;54486;51.442;6.778;2023-03-30T12:29:49;100542.13;;;15.27;70.75
67697;BME280;54486;51.442;6.778;2023-03-30T12:32:27;100553.25;;;15.37;68.33
67697;BME280;54486;51.442;6.778;2023-03-30T12:34:57;100581.75;;;15.21;68.28
67697;BME280;54486;51.442;6.778;2023-03-30T12:37:32;100554.81;;;15.13;69.80
67697;BME280;54486;51.442;6.778;2023-03-30T12:40:06;100557.81;;;15.01;70.94
67697;BME280;54486;51.442;6.778;2023-03-30T12:42:51;100564.75;;;14.73;73.09
67697;BME280;54486;51.442;6.778;2023-03-30T12:45:32;100580.16;;;14.54;75.72
67697;BME280;54486;51.442;6.778;2023-03-30T12:56:41;100602.16;;;13.40;87.06
67697;BME280;54486;51.442;6.778;2023-03-30T13:04:33;100543.97;;;12.83;86.26
67697;BME280;54486;51.442;6.778;2023-03-30T13:07:13;100566.22;;;13.02;86.26
67697;BME280;54486;51.442;6.778;2023-03-30T13:20:29;100552.09;;;14.22;85.86
67697;BME280;54486;51.442;6.778;2023-03-30T13:25:39;100552.84;;;14.91;83.50
67697;BME280;54486;51.442;6.778;2023-03-30T13:28:45;100547.41;;;15.27;82.12
67697;BME280;54486;51.442;6.778;2023-03-30T13:37:26;100520.09;;;16.38;74.58
67697;BME280;54486;51.442;6.778;2023-03-30T13:45:49;100524.81;;;17.24;70.87
67697;BME280;54486;51.442;6.778;2023-03-30T13:51:13;100509.41;;;17.59;69.36
67697;BME280;54486;51.442;6.778;2023-03-30T13:54:18;100500.53;;;18.43;67.46
67697;BME280;54486;51.442;6.778;2023-03-30T13:56:52;100509.66;;;19.14;62.87
67697;BME280;54486;51.442;6.778;2023-03-30T13:59:25;100517.16;;;18.25;60.33
67697;BME280;54486;51.442;6.778;2023-03-30T14:01:58;100510.59;;;17.50;64.38
67697;BME280;54486;51.442;6.778;2023-03-30T14:04:31;100512.88;;;17.14;65.62
67697;BME280;54486;51.442;6.778;2023-03-30T14:07:20;100515.66;;;17.78;63.87
67697;BME280;54486;51.442;6.778;2023-03-30T14:10:11;100508.56;;;18.20;61.46
67697;BME280;54486;51.442;6.778;2023-03-30T14:12:39;100501.78;;;18.15;60.35
67697;BME280;54486;51.442;6.778;2023-03-30T14:17:54;100507.19;;;17.70;62.10
67697;BME280;54486;51.442;6.778;2023-03-30T14:20:54;100512.13;;;17.99;61.79
67697;BME280;54486;51.442;6.778;2023-03-30T14:23:42;100508.84;;;18.34;58.82
67697;BME280;54486;51.442;6.778;2023-03-30T14:26:22;100505.91;;;18.00;61.20
67697;BME280;54486;51.442;6.778;2023-03-30T14:28:59;100508.88;;;17.49;61.82
67697;BME280;54486;51.442;6.778;2023-03-30T14:31:40;100500.16;;;17.25;62.34
67697;BME280;54486;51.442;6.778;2023-03-30T14:34:30;100519.03;;;17.15;61.60
67697;BME280;54486;51.442;6.778;2023-03-30T14:37:02;100520.59;;;16.97;61.48
67697;BME280;54486;51.442;6.778;2023-03-30T14:39:32;100518.59;;;16.80;62.94
67697;BME280;54486;51.442;6.778;2023-03-30T14:42:18;100523.34;;;16.71;62.00
67697;BME280;54486;51.442;6.778;2023-03-30T14:44:48;100519.34;;;16.84;62.49
67697;BME280;54486;51.442;6.778;2023-03-30T14:47:21;100503.94;;;18.05;59.10
67697;BME280;54486;51.442;6.778;2023-03-30T14:49:52;100512.28;;;19.33;55.91
67697;BME280;54486;51.442;6.778;2023-03-30T14:52:26;100518.13;;;19.94;53.46
67697;BME280;54486;51.442;6.778;2023-03-30T14:54:57;100519.81;;;19.95;50.90
67697;BME280;54486;51.442;6.778;2023-03-30T14:57:37;100501.47;;;20.09;52.06
67697;BME280;54486;51.442;6.778;2023-03-30T15:00:17;100496.47;;;20.37;52.11
67697;BME280;54486;51.442;6.778;2023-03-30T15:02:53;100490.41;;;19.84;53.89
67697;BME280;54486;51.442;6.778;2023-03-30T15:05:23;100494.75;;;19.12;55.05
67697;BME280;54486;51.442;6.778;2023-03-30T15:07:51;100494.06;;;18.51;56.79
67697;BME280;54486;51.442;6.778;2023-03-30T15:10:30;100494.28;;;17.84;58.96
67697;BME280;54486;51.442;6.778;2023-03-30T15:13:00;100494.16;;;17.43;60.38
67697;BME280;54486;51.442;6.778;2023-03-30T15:15:32;100504.56;;;17.03;60.70
67697;BME280;54486;51.442;6.778;2023-03-30T15:17:59;100489.41;;;16.85;62.77
67697;BME280;54486;51.442;6.778;2023-03-30T15:20:36;100496.56;;;16.58;63.52
67697;BME280;54486;51.442;6.778;2023-03-30T15:23:04;100551.16;;;16.28;66.36
67697;BME280;54486;51.442;6.778;2023-03-30T15:25:33;100545.81;;;15.79;72.87
67697;BME280;54486;51.442;6.778;2023-03-30T15:28:06;100546.72;;;16.04;73.91
67697;BME280;54486;51.442;6.778;2023-03-30T15:30:38;100549.16;;;16.61;71.97
67697;BME280;54486;51.442;6.778;2023-03-30T15:33:05;100541.00;;;17.15;68.30
67697;BME280;54486;51.442;6.778;2023-03-30T15:35:44;100537.84;;;17.51;67.64
67697;BME280;54486;51.442;6.778;2023-03-30T15:38:15;100543.09;;;17.95;65.18
67697;BME280;54486;51.442;6.778;2023-03-30T15:40:46;100530.34;;;18.05;64.13
67697;BME280;54486;51.442;6.778;2023-03-30T15:43:21;100531.00;;;17.90;64.06
67697;BME280;54486;51.442;6.778;2023-03-30T15:45:51;100531.69;;;17.93;65.23